To NAV CANADA Home Page Login to a new session Search on AWWS site Feedback and Comments Disclaimer Vers la page française équivalente Tips FAQ What's new on the site To the Forecasts and Observations / NOTAM section To "File a Flight Plan" website Publications and other links Update of the User's profile FIC Telephone Numbers My Weather Data Folder Route Weather Data Regional Weather Data Local Weather Data To the Forecasts and Observations / NOTAM section
Request Generated 04/30/2016 at 16:57:59 UTC . Weather information available at that time is displayed.

METAR/TAF

SUDBURY/ON    

METAR CYSB 301600Z 11006G18KT 040V130 20SM SCT130 13/M07 A3022 RMK
AC3 SLP243=
METAR CYSB 301500Z 07009G15KT 020V100 20SM BKN130 12/M06 A3023 RMK
AC6 SLP250=
METAR CYSB 301400Z 05011KT 20SM BKN140 09/M05 A3023 RMK AC7 SLP250=

TAF CYSB 301338Z 3014/0102 04006KT P6SM BKN140
FM301700 04008KT P6SM BKN100
FM302100 04008KT P6SM BKN050 OVC090
BECMG 3022/3024 04007G17KT
RMK NXT FCST BY 302000Z=
Your time UTC time
Weather data provided by Environment Canada and NAV CANADA